sensor_id;sensor_type;location;lat;lon;timestamp;P1;durP1;ratioP1;P2;durP2;ratioP2
15327;SDS011;7764;51.430;6.840;2023-04-28T00:01:36;15.47;;;9.07;;
15327;SDS011;7764;51.430;6.840;2023-04-28T00:04:03;15.70;;;9.30;;
15327;SDS011;7764;51.430;6.840;2023-04-28T00:06:30;13.50;;;8.97;;
15327;SDS011;7764;51.430;6.840;2023-04-28T00:08:57;13.13;;;8.87;;
15327;SDS011;7764;51.430;6.840;2023-04-28T00:11:24;13.67;;;9.17;;
15327;SDS011;7764;51.430;6.840;2023-04-28T00:13:51;15.00;;;9.17;;
15327;SDS011;7764;51.430;6.840;2023-04-28T00:16:19;17.67;;;9.00;;
15327;SDS011;7764;51.430;6.840;2023-04-28T00:18:46;14.97;;;9.60;;
15327;SDS011;7764;51.430;6.840;2023-04-28T00:21:13;17.83;;;9.23;;
15327;SDS011;7764;51.430;6.840;2023-04-28T00:23:40;17.83;;;10.10;;
15327;SDS011;7764;51.430;6.840;2023-04-28T00:26:07;14.47;;;9.67;;
15327;SDS011;7764;51.430;6.840;2023-04-28T00:28:33;15.17;;;10.00;;
15327;SDS011;7764;51.430;6.840;2023-04-28T00:31:00;15.77;;;9.73;;
15327;SDS011;7764;51.430;6.840;2023-04-28T00:33:29;15.73;;;10.00;;
15327;SDS011;7764;51.430;6.840;2023-04-28T00:35:58;14.50;;;9.50;;
15327;SDS011;7764;51.430;6.840;2023-04-28T00:38:25;16.57;;;10.23;;
15327;SDS011;7764;51.430;6.840;2023-04-28T00:40:52;16.50;;;10.87;;
15327;SDS011;7764;51.430;6.840;2023-04-28T00:43:19;16.27;;;10.53;;
15327;SDS011;7764;51.430;6.840;2023-04-28T00:45:46;17.70;;;10.57;;
15327;SDS011;7764;51.430;6.840;2023-04-28T00:48:14;16.77;;;11.07;;
15327;SDS011;7764;51.430;6.840;2023-04-28T00:50:43;17.33;;;11.13;;
15327;SDS011;7764;51.430;6.840;2023-04-28T00:53:10;15.57;;;11.20;;
15327;SDS011;7764;51.430;6.840;2023-04-28T00:55:38;18.37;;;12.47;;
15327;SDS011;7764;51.430;6.840;2023-04-28T00:58:05;20.80;;;14.50;;
15327;SDS011;7764;51.430;6.840;2023-04-28T01:00:32;19.03;;;12.10;;
15327;SDS011;7764;51.430;6.840;2023-04-28T01:03:00;18.57;;;12.00;;
15327;SDS011;7764;51.430;6.840;2023-04-28T01:05:27;15.80;;;10.90;;
15327;SDS011;7764;51.430;6.840;2023-04-28T01:07:56;16.63;;;11.00;;
15327;SDS011;7764;51.430;6.840;2023-04-28T01:10:23;16.20;;;11.60;;
15327;SDS011;7764;51.430;6.840;2023-04-28T01:12:50;15.90;;;11.40;;
15327;SDS011;7764;51.430;6.840;2023-04-28T01:15:17;21.10;;;12.53;;
15327;SDS011;7764;51.430;6.840;2023-04-28T01:17:45;17.60;;;12.03;;
15327;SDS011;7764;51.430;6.840;2023-04-28T01:20:12;17.50;;;11.77;;
15327;SDS011;7764;51.430;6.840;2023-04-28T01:22:39;16.70;;;11.83;;
15327;SDS011;7764;51.430;6.840;2023-04-28T01:25:07;18.90;;;11.83;;
15327;SDS011;7764;51.430;6.840;2023-04-28T01:27:35;17.43;;;12.20;;
15327;SDS011;7764;51.430;6.840;2023-04-28T01:30:02;21.73;;;12.80;;
15327;SDS011;7764;51.430;6.840;2023-04-28T01:32:29;19.77;;;12.67;;
15327;SDS011;7764;51.430;6.840;2023-04-28T01:34:55;19.80;;;13.20;;
15327;SDS011;7764;51.430;6.840;2023-04-28T01:37:22;19.10;;;13.10;;
15327;SDS011;7764;51.430;6.840;2023-04-28T01:39:49;18.17;;;12.23;;
15327;SDS011;7764;51.430;6.840;2023-04-28T01:42:17;22.63;;;13.17;;
15327;SDS011;7764;51.430;6.840;2023-04-28T01:44:44;18.13;;;12.83;;
15327;SDS011;7764;51.430;6.840;2023-04-28T01:47:11;17.83;;;12.83;;
15327;SDS011;7764;51.430;6.840;2023-04-28T01:49:38;20.57;;;13.60;;
15327;SDS011;7764;51.430;6.840;2023-04-28T01:52:04;19.23;;;12.87;;
15327;SDS011;7764;51.430;6.840;2023-04-28T01:54:31;20.80;;;14.00;;
15327;SDS011;7764;51.430;6.840;2023-04-28T01:56:58;20.53;;;12.90;;
15327;SDS011;7764;51.430;6.840;2023-04-28T01:59:27;22.20;;;13.67;;
15327;SDS011;7764;51.430;6.840;2023-04-28T02:01:54;20.90;;;13.30;;
15327;SDS011;7764;51.430;6.840;2023-04-28T02:04:21;20.87;;;13.33;;
15327;SDS011;7764;51.430;6.840;2023-04-28T02:06:48;21.37;;;13.67;;
15327;SDS011;7764;51.430;6.840;2023-04-28T02:09:17;18.47;;;13.57;;
15327;SDS011;7764;51.430;6.840;2023-04-28T02:11:44;19.50;;;13.83;;
15327;SDS011;7764;51.430;6.840;2023-04-28T02:14:11;20.00;;;13.97;;
15327;SDS011;7764;51.430;6.840;2023-04-28T02:16:39;20.83;;;14.10;;
15327;SDS011;7764;51.430;6.840;2023-04-28T02:19:06;21.07;;;14.27;;
15327;SDS011;7764;51.430;6.840;2023-04-28T02:21:33;21.63;;;15.27;;
15327;SDS011;7764;51.430;6.840;2023-04-28T02:24:00;23.77;;;14.60;;
15327;SDS011;7764;51.430;6.840;2023-04-28T02:26:27;20.93;;;14.63;;
15327;SDS011;7764;51.430;6.840;2023-04-28T02:28:54;21.77;;;14.23;;
15327;SDS011;7764;51.430;6.840;2023-04-28T02:31:20;19.90;;;14.70;;
15327;SDS011;7764;51.430;6.840;2023-04-28T02:33:49;20.73;;;14.87;;
15327;SDS011;7764;51.430;6.840;2023-04-28T02:36:15;22.53;;;15.87;;
15327;SDS011;7764;51.430;6.840;2023-04-28T02:38:42;22.83;;;15.50;;
15327;SDS011;7764;51.430;6.840;2023-04-28T02:41:09;23.17;;;15.67;;
15327;SDS011;7764;51.430;6.840;2023-04-28T02:43:36;20.97;;;14.90;;
15327;SDS011;7764;51.430;6.840;2023-04-28T02:46:03;25.20;;;15.67;;
15327;SDS011;7764;51.430;6.840;2023-04-28T02:48:30;22.47;;;14.63;;
15327;SDS011;7764;51.430;6.840;2023-04-28T02:51:00;22.80;;;15.33;;
15327;SDS011;7764;51.430;6.840;2023-04-28T02:53:28;23.00;;;15.20;;
15327;SDS011;7764;51.430;6.840;2023-04-28T02:55:54;22.20;;;15.13;;
15327;SDS011;7764;51.430;6.840;2023-04-28T02:58:22;21.57;;;15.67;;
15327;SDS011;7764;51.430;6.840;2023-04-28T03:00:49;25.03;;;17.00;;
15327;SDS011;7764;51.430;6.840;2023-04-28T03:03:16;23.30;;;15.93;;
15327;SDS011;7764;51.430;6.840;2023-04-28T03:05:42;22.23;;;16.10;;
15327;SDS011;7764;51.430;6.840;2023-04-28T03:08:11;21.67;;;16.43;;
15327;SDS011;7764;51.430;6.840;2023-04-28T03:10:38;23.13;;;15.33;;
15327;SDS011;7764;51.430;6.840;2023-04-28T03:13:05;26.20;;;16.90;;
15327;SDS011;7764;51.430;6.840;2023-04-28T03:15:32;25.50;;;16.90;;
15327;SDS011;7764;51.430;6.840;2023-04-28T03:17:59;26.80;;;16.33;;
15327;SDS011;7764;51.430;6.840;2023-04-28T03:20:26;22.83;;;15.90;;
15327;SDS011;7764;51.430;6.840;2023-04-28T03:22:53;22.13;;;16.30;;
15327;SDS011;7764;51.430;6.840;2023-04-28T03:25:21;24.27;;;17.10;;
15327;SDS011;7764;51.430;6.840;2023-04-28T03:27:48;23.67;;;16.93;;
15327;SDS011;7764;51.430;6.840;2023-04-28T03:30:14;27.97;;;18.30;;
15327;SDS011;7764;51.430;6.840;2023-04-28T03:32:41;25.33;;;16.73;;
15327;SDS011;7764;51.430;6.840;2023-04-28T03:35:08;24.83;;;16.63;;
15327;SDS011;7764;51.430;6.840;2023-04-28T03:37:35;25.53;;;17.67;;
15327;SDS011;7764;51.430;6.840;2023-04-28T03:40:02;26.53;;;18.43;;
15327;SDS011;7764;51.430;6.840;2023-04-28T03:42:31;28.73;;;18.33;;
15327;SDS011;7764;51.430;6.840;2023-04-28T03:44:58;27.23;;;18.47;;
15327;SDS011;7764;51.430;6.840;2023-04-28T03:47:25;27.70;;;18.47;;
15327;SDS011;7764;51.430;6.840;2023-04-28T03:49:52;25.90;;;17.93;;
15327;SDS011;7764;51.430;6.840;2023-04-28T03:52:19;24.83;;;17.80;;
15327;SDS011;7764;51.430;6.840;2023-04-28T03:54:46;25.70;;;18.57;;
15327;SDS011;7764;51.430;6.840;2023-04-28T03:57:13;25.97;;;17.57;;
15327;SDS011;7764;51.430;6.840;2023-04-28T03:59:41;24.90;;;15.70;;
15327;SDS011;7764;51.430;6.840;2023-04-28T04:02:08;24.53;;;17.20;;
15327;SDS011;7764;51.430;6.840;2023-04-28T04:04:35;22.30;;;16.23;;
15327;SDS011;7764;51.430;6.840;2023-04-28T04:07:01;22.30;;;16.47;;
15327;SDS011;7764;51.430;6.840;2023-04-28T04:09:28;23.10;;;16.70;;
15327;SDS011;7764;51.430;6.840;2023-04-28T04:11:55;22.60;;;16.77;;
15327;SDS011;7764;51.430;6.840;2023-04-28T04:14:22;22.37;;;16.37;;
15327;SDS011;7764;51.430;6.840;2023-04-28T04:16:50;24.70;;;17.03;;
15327;SDS011;7764;51.430;6.840;2023-04-28T04:19:19;26.87;;;16.77;;
15327;SDS011;7764;51.430;6.840;2023-04-28T04:21:48;22.97;;;16.97;;
15327;SDS011;7764;51.430;6.840;2023-04-28T04:24:14;24.90;;;16.20;;
15327;SDS011;7764;51.430;6.840;2023-04-28T04:26:41;23.07;;;16.77;;
15327;SDS011;7764;51.430;6.840;2023-04-28T04:29:08;21.07;;;16.60;;
15327;SDS011;7764;51.430;6.840;2023-04-28T04:31:35;23.43;;;15.83;;
15327;SDS011;7764;51.430;6.840;2023-04-28T04:34:03;24.70;;;17.37;;
15327;SDS011;7764;51.430;6.840;2023-04-28T04:36:30;23.60;;;16.17;;
15327;SDS011;7764;51.430;6.840;2023-04-28T04:38:57;22.80;;;16.87;;
15327;SDS011;7764;51.430;6.840;2023-04-28T04:41:24;21.63;;;16.97;;
15327;SDS011;7764;51.430;6.840;2023-04-28T04:43:51;28.57;;;22.00;;
15327;SDS011;7764;51.430;6.840;2023-04-28T04:46:18;23.27;;;16.93;;
15327;SDS011;7764;51.430;6.840;2023-04-28T04:48:45;22.13;;;14.83;;
15327;SDS011;7764;51.430;6.840;2023-04-28T04:51:13;19.67;;;15.10;;
15327;SDS011;7764;51.430;6.840;2023-04-28T04:53:40;26.53;;;19.87;;
15327;SDS011;7764;51.430;6.840;2023-04-28T04:56:07;23.60;;;16.70;;
15327;SDS011;7764;51.430;6.840;2023-04-28T04:58:34;24.40;;;17.13;;
15327;SDS011;7764;51.430;6.840;2023-04-28T05:01:01;24.00;;;17.27;;
15327;SDS011;7764;51.430;6.840;2023-04-28T05:03:28;21.77;;;16.63;;
15327;SDS011;7764;51.430;6.840;2023-04-28T05:05:55;23.80;;;17.80;;
15327;SDS011;7764;51.430;6.840;2023-04-28T05:08:23;27.53;;;17.93;;
15327;SDS011;7764;51.430;6.840;2023-04-28T05:10:50;24.30;;;16.00;;
15327;SDS011;7764;51.430;6.840;2023-04-28T05:13:17;21.63;;;15.30;;
15327;SDS011;7764;51.430;6.840;2023-04-28T05:15:44;20.80;;;15.70;;
15327;SDS011;7764;51.430;6.840;2023-04-28T05:18:11;23.93;;;16.67;;
15327;SDS011;7764;51.430;6.840;2023-04-28T05:20:38;23.23;;;17.23;;
15327;SDS011;7764;51.430;6.840;2023-04-28T05:23:05;22.70;;;17.07;;
15327;SDS011;7764;51.430;6.840;2023-04-28T05:25:33;24.30;;;18.60;;
15327;SDS011;7764;51.430;6.840;2023-04-28T05:28:00;20.53;;;16.00;;
15327;SDS011;7764;51.430;6.840;2023-04-28T05:30:31;33.03;;;26.07;;
15327;SDS011;7764;51.430;6.840;2023-04-28T05:32:58;20.93;;;16.70;;
15327;SDS011;7764;51.430;6.840;2023-04-28T05:35:25;23.30;;;15.93;;
15327;SDS011;7764;51.430;6.840;2023-04-28T05:37:52;23.27;;;16.70;;
15327;SDS011;7764;51.430;6.840;2023-04-28T05:40:18;20.97;;;15.40;;
15327;SDS011;7764;51.430;6.840;2023-04-28T05:42:47;20.27;;;15.23;;
15327;SDS011;7764;51.430;6.840;2023-04-28T05:45:14;23.17;;;16.07;;
15327;SDS011;7764;51.430;6.840;2023-04-28T05:47:41;20.30;;;15.10;;
15327;SDS011;7764;51.430;6.840;2023-04-28T05:50:08;22.00;;;15.97;;
15327;SDS011;7764;51.430;6.840;2023-04-28T05:52:35;21.57;;;15.77;;
15327;SDS011;7764;51.430;6.840;2023-04-28T05:55:02;20.17;;;15.27;;
15327;SDS011;7764;51.430;6.840;2023-04-28T05:57:29;20.80;;;15.93;;
15327;SDS011;7764;51.430;6.840;2023-04-28T05:59:58;22.30;;;15.80;;
15327;SDS011;7764;51.430;6.840;2023-04-28T06:02:24;20.73;;;15.30;;
15327;SDS011;7764;51.430;6.840;2023-04-28T06:04:51;20.63;;;16.13;;
15327;SDS011;7764;51.430;6.840;2023-04-28T06:07:18;22.83;;;16.60;;
15327;SDS011;7764;51.430;6.840;2023-04-28T06:09:45;22.93;;;16.03;;
15327;SDS011;7764;51.430;6.840;2023-04-28T06:12:12;21.77;;;15.47;;
15327;SDS011;7764;51.430;6.840;2023-04-28T06:14:39;22.17;;;15.77;;
15327;SDS011;7764;51.430;6.840;2023-04-28T06:17:07;21.40;;;18.03;;
15327;SDS011;7764;51.430;6.840;2023-04-28T06:19:34;21.87;;;16.53;;
15327;SDS011;7764;51.430;6.840;2023-04-28T06:22:01;21.17;;;15.33;;
15327;SDS011;7764;51.430;6.840;2023-04-28T06:24:28;22.67;;;15.90;;
15327;SDS011;7764;51.430;6.840;2023-04-28T06:26:54;22.47;;;16.37;;
15327;SDS011;7764;51.430;6.840;2023-04-28T06:29:21;24.40;;;16.87;;
15327;SDS011;7764;51.430;6.840;2023-04-28T06:31:49;25.40;;;14.83;;
15327;SDS011;7764;51.430;6.840;2023-04-28T06:34:17;18.53;;;14.10;;
15327;SDS011;7764;51.430;6.840;2023-04-28T06:36:44;19.10;;;14.60;;
15327;SDS011;7764;51.430;6.840;2023-04-28T06:39:11;18.40;;;13.90;;
15327;SDS011;7764;51.430;6.840;2023-04-28T06:41:38;17.90;;;13.17;;
15327;SDS011;7764;51.430;6.840;2023-04-28T06:44:05;16.77;;;13.13;;
15327;SDS011;7764;51.430;6.840;2023-04-28T06:46:32;39.87;;;25.90;;
15327;SDS011;7764;51.430;6.840;2023-04-28T06:48:59;30.73;;;24.10;;
15327;SDS011;7764;51.430;6.840;2023-04-28T06:51:27;16.83;;;13.10;;
15327;SDS011;7764;51.430;6.840;2023-04-28T06:53:54;18.27;;;13.30;;
15327;SDS011;7764;51.430;6.840;2023-04-28T06:56:24;17.00;;;13.10;;
15327;SDS011;7764;51.430;6.840;2023-04-28T06:58:51;15.70;;;12.43;;
15327;SDS011;7764;51.430;6.840;2023-04-28T07:01:19;18.03;;;12.50;;
15327;SDS011;7764;51.430;6.840;2023-04-28T07:03:46;17.00;;;13.00;;
15327;SDS011;7764;51.430;6.840;2023-04-28T07:06:13;16.30;;;12.17;;
15327;SDS011;7764;51.430;6.840;2023-04-28T07:08:43;16.83;;;11.87;;
15327;SDS011;7764;51.430;6.840;2023-04-28T07:11:10;15.63;;;10.90;;
15327;SDS011;7764;51.430;6.840;2023-04-28T07:13:37;13.30;;;10.23;;
15327;SDS011;7764;51.430;6.840;2023-04-28T07:16:04;16.07;;;10.70;;
15327;SDS011;7764;51.430;6.840;2023-04-28T07:18:31;13.70;;;10.30;;
15327;SDS011;7764;51.430;6.840;2023-04-28T07:20:58;14.47;;;9.20;;
15327;SDS011;7764;51.430;6.840;2023-04-28T07:23:25;13.27;;;8.60;;
15327;SDS011;7764;51.430;6.840;2023-04-28T07:25:53;10.23;;;8.43;;
15327;SDS011;7764;51.430;6.840;2023-04-28T07:28:20;11.87;;;9.03;;
15327;SDS011;7764;51.430;6.840;2023-04-28T07:30:46;12.03;;;8.60;;
15327;SDS011;7764;51.430;6.840;2023-04-28T07:33:13;12.23;;;8.37;;
15327;SDS011;7764;51.430;6.840;2023-04-28T07:35:40;14.73;;;8.17;;
15327;SDS011;7764;51.430;6.840;2023-04-28T07:38:07;10.83;;;8.17;;
15327;SDS011;7764;51.430;6.840;2023-04-28T07:40:34;10.67;;;8.07;;
15327;SDS011;7764;51.430;6.840;2023-04-28T07:43:02;15.57;;;11.07;;
15327;SDS011;7764;51.430;6.840;2023-04-28T07:45:29;15.17;;;9.87;;
15327;SDS011;7764;51.430;6.840;2023-04-28T07:47:56;11.67;;;7.87;;
15327;SDS011;7764;51.430;6.840;2023-04-28T07:50:23;11.97;;;8.73;;
15327;SDS011;7764;51.430;6.840;2023-04-28T07:52:50;10.33;;;7.77;;
15327;SDS011;7764;51.430;6.840;2023-04-28T07:55:17;10.60;;;7.93;;
15327;SDS011;7764;51.430;6.840;2023-04-28T07:57:44;10.23;;;7.80;;
15327;SDS011;7764;51.430;6.840;2023-04-28T08:00:13;11.17;;;7.73;;
15327;SDS011;7764;51.430;6.840;2023-04-28T08:02:40;11.37;;;8.60;;
15327;SDS011;7764;51.430;6.840;2023-04-28T08:05:07;11.10;;;7.97;;
15327;SDS011;7764;51.430;6.840;2023-04-28T08:07:34;16.23;;;8.97;;
15327;SDS011;7764;51.430;6.840;2023-04-28T08:10:02;11.83;;;8.63;;
15327;SDS011;7764;51.430;6.840;2023-04-28T08:12:29;12.83;;;8.30;;
15327;SDS011;7764;51.430;6.840;2023-04-28T08:14:56;10.33;;;7.70;;
15327;SDS011;7764;51.430;6.840;2023-04-28T08:17:24;14.00;;;9.80;;
15327;SDS011;7764;51.430;6.840;2023-04-28T08:19:51;12.03;;;8.50;;
15327;SDS011;7764;51.430;6.840;2023-04-28T08:22:18;12.80;;;8.97;;
15327;SDS011;7764;51.430;6.840;2023-04-28T08:24:45;11.83;;;8.63;;
15327;SDS011;7764;51.430;6.840;2023-04-28T08:27:12;14.10;;;8.50;;
15327;SDS011;7764;51.430;6.840;2023-04-28T08:29:39;11.57;;;7.90;;
15327;SDS011;7764;51.430;6.840;2023-04-28T08:32:08;12.03;;;8.40;;
15327;SDS011;7764;51.430;6.840;2023-04-28T08:34:36;12.63;;;8.77;;
15327;SDS011;7764;51.430;6.840;2023-04-28T08:37:03;10.37;;;7.87;;
15327;SDS011;7764;51.430;6.840;2023-04-28T08:39:31;11.73;;;8.07;;
15327;SDS011;7764;51.430;6.840;2023-04-28T08:42:01;12.88;;;8.10;;
15327;SDS011;7764;51.430;6.840;2023-04-28T08:44:30;11.43;;;8.10;;
15327;SDS011;7764;51.430;6.840;2023-04-28T08:47:02;12.00;;;8.07;;
15327;SDS011;7764;51.430;6.840;2023-04-28T08:49:33;13.20;;;8.00;;
15327;SDS011;7764;51.430;6.840;2023-04-28T08:52:04;11.90;;;8.30;;
15327;SDS011;7764;51.430;6.840;2023-04-28T08:54:35;12.20;;;8.77;;
15327;SDS011;7764;51.430;6.840;2023-04-28T08:57:06;11.13;;;8.00;;
15327;SDS011;7764;51.430;6.840;2023-04-28T08:59:36;25.95;;;23.20;;
15327;SDS011;7764;51.430;6.840;2023-04-28T09:02:04;19.30;;;14.30;;
15327;SDS011;7764;51.430;6.840;2023-04-28T09:04:31;11.13;;;8.23;;
15327;SDS011;7764;51.430;6.840;2023-04-28T09:06:58;14.23;;;8.87;;
15327;SDS011;7764;51.430;6.840;2023-04-28T09:09:26;12.95;;;9.45;;
15327;SDS011;7764;51.430;6.840;2023-04-28T09:11:55;13.73;;;9.18;;
15327;SDS011;7764;51.430;6.840;2023-04-28T09:14:23;13.37;;;9.03;;
15327;SDS011;7764;51.430;6.840;2023-04-28T09:16:51;13.75;;;9.70;;
15327;SDS011;7764;51.430;6.840;2023-04-28T09:19:18;12.70;;;9.75;;
15327;SDS011;7764;51.430;6.840;2023-04-28T09:21:46;13.82;;;9.32;;
15327;SDS011;7764;51.430;6.840;2023-04-28T09:24:31;15.00;;;11.25;;
15327;SDS011;7764;51.430;6.840;2023-04-28T09:26:59;15.27;;;11.57;;
15327;SDS011;7764;51.430;6.840;2023-04-28T09:29:27;14.60;;;11.57;;
15327;SDS011;7764;51.430;6.840;2023-04-28T09:31:57;32.65;;;23.13;;
15327;SDS011;7764;51.430;6.840;2023-04-28T09:34:41;15.52;;;10.65;;
15327;SDS011;7764;51.430;6.840;2023-04-28T09:37:13;19.17;;;13.68;;
15327;SDS011;7764;51.430;6.840;2023-04-28T09:39:42;14.93;;;11.05;;
15327;SDS011;7764;51.430;6.840;2023-04-28T09:42:09;15.38;;;10.80;;
15327;SDS011;7764;51.430;6.840;2023-04-28T09:44:36;13.93;;;10.98;;
15327;SDS011;7764;51.430;6.840;2023-04-28T09:47:11;16.63;;;10.68;;
15327;SDS011;7764;51.430;6.840;2023-04-28T09:49:52;15.25;;;9.23;;
15327;SDS011;7764;51.430;6.840;2023-04-28T09:52:20;14.45;;;10.60;;
15327;SDS011;7764;51.430;6.840;2023-04-28T09:54:49;15.60;;;10.38;;
15327;SDS011;7764;51.430;6.840;2023-04-28T09:57:20;16.23;;;9.98;;
15327;SDS011;7764;51.430;6.840;2023-04-28T09:59:48;15.05;;;9.32;;
15327;SDS011;7764;51.430;6.840;2023-04-28T10:02:16;14.55;;;10.13;;
15327;SDS011;7764;51.430;6.840;2023-04-28T10:04:44;14.65;;;9.48;;
15327;SDS011;7764;51.430;6.840;2023-04-28T10:07:13;14.88;;;10.07;;
15327;SDS011;7764;51.430;6.840;2023-04-28T10:09:41;16.83;;;10.80;;
15327;SDS011;7764;51.430;6.840;2023-04-28T10:12:13;15.10;;;10.48;;
15327;SDS011;7764;51.430;6.840;2023-04-28T10:14:40;17.88;;;11.48;;
15327;SDS011;7764;51.430;6.840;2023-04-28T10:17:08;21.70;;;15.90;;
15327;SDS011;7764;51.430;6.840;2023-04-28T10:19:36;18.73;;;10.85;;
15327;SDS011;7764;51.430;6.840;2023-04-28T10:22:07;22.20;;;13.52;;
15327;SDS011;7764;51.430;6.840;2023-04-28T10:25:01;18.73;;;11.57;;
15327;SDS011;7764;51.430;6.840;2023-04-28T10:27:40;16.50;;;10.65;;
15327;SDS011;7764;51.430;6.840;2023-04-28T10:30:09;16.80;;;11.13;;
15327;SDS011;7764;51.430;6.840;2023-04-28T10:32:37;16.33;;;11.30;;
15327;SDS011;7764;51.430;6.840;2023-04-28T10:38:09;18.30;;;11.98;;
15327;SDS011;7764;51.430;6.840;2023-04-28T10:40:37;15.30;;;12.00;;
15327;SDS011;7764;51.430;6.840;2023-04-28T10:43:06;17.08;;;11.50;;
15327;SDS011;7764;51.430;6.840;2023-04-28T10:51:30;18.97;;;14.13;;
15327;SDS011;7764;51.430;6.840;2023-04-28T10:54:08;17.38;;;13.35;;
15327;SDS011;7764;51.430;6.840;2023-04-28T10:59:47;22.95;;;13.48;;
15327;SDS011;7764;51.430;6.840;2023-04-28T11:05:15;22.08;;;16.83;;
15327;SDS011;7764;51.430;6.840;2023-04-28T11:11:13;21.35;;;16.48;;
15327;SDS011;7764;51.430;6.840;2023-04-28T11:13:41;19.30;;;15.52;;
15327;SDS011;7764;51.430;6.840;2023-04-28T11:16:13;20.50;;;16.25;;
15327;SDS011;7764;51.430;6.840;2023-04-28T11:18:48;20.90;;;16.20;;
15327;SDS011;7764;51.430;6.840;2023-04-28T11:21:16;23.77;;;17.27;;
15327;SDS011;7764;51.430;6.840;2023-04-28T11:23:43;22.65;;;15.95;;
15327;SDS011;7764;51.430;6.840;2023-04-28T11:26:10;21.63;;;15.20;;
15327;SDS011;7764;51.430;6.840;2023-04-28T11:28:45;30.55;;;24.02;;
15327;SDS011;7764;51.430;6.840;2023-04-28T11:31:14;20.77;;;16.13;;
15327;SDS011;7764;51.430;6.840;2023-04-28T11:33:45;18.07;;;15.30;;
15327;SDS011;7764;51.430;6.840;2023-04-28T11:36:23;22.13;;;16.95;;
15327;SDS011;7764;51.430;6.840;2023-04-28T11:38:52;19.25;;;15.88;;
15327;SDS011;7764;51.430;6.840;2023-04-28T11:41:20;24.98;;;17.33;;
15327;SDS011;7764;51.430;6.840;2023-04-28T11:43:47;20.70;;;17.00;;
15327;SDS011;7764;51.430;6.840;2023-04-28T11:46:18;43.20;;;30.25;;
15327;SDS011;7764;51.430;6.840;2023-04-28T11:48:46;23.15;;;18.58;;
15327;SDS011;7764;51.430;6.840;2023-04-28T11:54:04;20.20;;;18.10;;
15327;SDS011;7764;51.430;6.840;2023-04-28T11:56:36;23.70;;;20.88;;
15327;SDS011;7764;51.430;6.840;2023-04-28T11:59:04;24.67;;;20.13;;
15327;SDS011;7764;51.430;6.840;2023-04-28T12:01:34;25.55;;;22.75;;
15327;SDS011;7764;51.430;6.840;2023-04-28T12:04:10;22.83;;;20.42;;
15327;SDS011;7764;51.430;6.840;2023-04-28T12:06:38;23.30;;;20.83;;
15327;SDS011;7764;51.430;6.840;2023-04-28T12:09:13;27.33;;;23.17;;
15327;SDS011;7764;51.430;6.840;2023-04-28T12:11:50;27.52;;;24.00;;
15327;SDS011;7764;51.430;6.840;2023-04-28T12:14:18;28.30;;;24.08;;
15327;SDS011;7764;51.430;6.840;2023-04-28T12:16:46;28.80;;;25.40;;
15327;SDS011;7764;51.430;6.840;2023-04-28T12:19:14;27.13;;;24.13;;
15327;SDS011;7764;51.430;6.840;2023-04-28T12:21:56;26.90;;;24.10;;
15327;SDS011;7764;51.430;6.840;2023-04-28T12:24:24;25.10;;;22.40;;
15327;SDS011;7764;51.430;6.840;2023-04-28T12:26:52;27.33;;;24.50;;
15327;SDS011;7764;51.430;6.840;2023-04-28T12:29:34;26.38;;;22.75;;
15327;SDS011;7764;51.430;6.840;2023-04-28T12:32:04;24.00;;;21.38;;
15327;SDS011;7764;51.430;6.840;2023-04-28T12:34:33;24.20;;;20.77;;
15327;SDS011;7764;51.430;6.840;2023-04-28T12:37:00;22.98;;;20.45;;
15327;SDS011;7764;51.430;6.840;2023-04-28T12:39:29;42.45;;;34.63;;
15327;SDS011;7764;51.430;6.840;2023-04-28T12:41:56;18.88;;;16.88;;
15327;SDS011;7764;51.430;6.840;2023-04-28T12:44:24;22.25;;;19.17;;
15327;SDS011;7764;51.430;6.840;2023-04-28T12:46:52;22.02;;;15.65;;
15327;SDS011;7764;51.430;6.840;2023-04-28T12:49:21;17.17;;;15.32;;
15327;SDS011;7764;51.430;6.840;2023-04-28T12:51:48;14.68;;;12.98;;
15327;SDS011;7764;51.430;6.840;2023-04-28T12:54:15;28.60;;;14.93;;
15327;SDS011;7764;51.430;6.840;2023-04-28T12:56:42;18.98;;;15.90;;
15327;SDS011;7764;51.430;6.840;2023-04-28T12:59:09;19.10;;;16.42;;
15327;SDS011;7764;51.430;6.840;2023-04-28T13:01:35;16.77;;;13.75;;
15327;SDS011;7764;51.430;6.840;2023-04-28T13:04:02;18.85;;;15.20;;
15327;SDS011;7764;51.430;6.840;2023-04-28T13:06:31;17.98;;;15.73;;
15327;SDS011;7764;51.430;6.840;2023-04-28T13:08:58;19.63;;;13.75;;
15327;SDS011;7764;51.430;6.840;2023-04-28T13:11:25;15.40;;;12.30;;
15327;SDS011;7764;51.430;6.840;2023-04-28T13:13:52;27.25;;;22.85;;
15327;SDS011;7764;51.430;6.840;2023-04-28T13:16:21;15.00;;;12.85;;
15327;SDS011;7764;51.430;6.840;2023-04-28T13:18:52;14.82;;;13.13;;
15327;SDS011;7764;51.430;6.840;2023-04-28T13:21:20;15.10;;;11.98;;
15327;SDS011;7764;51.430;6.840;2023-04-28T13:23:49;20.15;;;13.68;;
15327;SDS011;7764;51.430;6.840;2023-04-28T13:26:16;15.68;;;13.40;;
15327;SDS011;7764;51.430;6.840;2023-04-28T13:28:43;14.90;;;12.40;;
15327;SDS011;7764;51.430;6.840;2023-04-28T13:31:10;23.00;;;17.63;;
15327;SDS011;7764;51.430;6.840;2023-04-28T13:33:37;16.00;;;12.95;;
15327;SDS011;7764;51.430;6.840;2023-04-28T13:36:04;15.15;;;12.30;;
15327;SDS011;7764;51.430;6.840;2023-04-28T13:38:32;14.60;;;11.27;;
15327;SDS011;7764;51.430;6.840;2023-04-28T13:41:00;14.05;;;11.15;;
15327;SDS011;7764;51.430;6.840;2023-04-28T13:43:27;47.28;;;40.45;;
15327;SDS011;7764;51.430;6.840;2023-04-28T13:45:55;16.58;;;11.75;;
15327;SDS011;7764;51.430;6.840;2023-04-28T13:48:21;16.60;;;11.10;;
15327;SDS011;7764;51.430;6.840;2023-04-28T13:50:49;16.10;;;10.98;;
15327;SDS011;7764;51.430;6.840;2023-04-28T13:53:17;14.43;;;10.38;;
15327;SDS011;7764;51.430;6.840;2023-04-28T13:55:44;14.43;;;10.82;;
15327;SDS011;7764;51.430;6.840;2023-04-28T13:58:12;13.10;;;10.50;;
15327;SDS011;7764;51.430;6.840;2023-04-28T14:00:39;11.20;;;9.35;;
15327;SDS011;7764;51.430;6.840;2023-04-28T14:03:06;12.75;;;10.15;;
15327;SDS011;7764;51.430;6.840;2023-04-28T14:05:33;12.75;;;9.27;;
15327;SDS011;7764;51.430;6.840;2023-04-28T14:08:01;11.50;;;10.30;;
15327;SDS011;7764;51.430;6.840;2023-04-28T14:10:28;9.98;;;8.98;;
15327;SDS011;7764;51.430;6.840;2023-04-28T14:12:56;11.80;;;9.68;;
15327;SDS011;7764;51.430;6.840;2023-04-28T14:15:25;14.52;;;9.50;;
15327;SDS011;7764;51.430;6.840;2023-04-28T14:17:52;16.17;;;11.52;;
15327;SDS011;7764;51.430;6.840;2023-04-28T14:20:19;10.95;;;8.73;;
15327;SDS011;7764;51.430;6.840;2023-04-28T14:22:46;14.32;;;8.50;;
15327;SDS011;7764;51.430;6.840;2023-04-28T14:25:13;12.32;;;8.23;;
15327;SDS011;7764;51.430;6.840;2023-04-28T14:27:40;8.20;;;6.80;;
15327;SDS011;7764;51.430;6.840;2023-04-28T14:30:07;8.85;;;6.88;;
15327;SDS011;7764;51.430;6.840;2023-04-28T14:32:36;10.82;;;8.27;;
15327;SDS011;7764;51.430;6.840;2023-04-28T14:35:03;9.52;;;8.25;;
15327;SDS011;7764;51.430;6.840;2023-04-28T14:37:31;9.85;;;7.07;;
15327;SDS011;7764;51.430;6.840;2023-04-28T14:39:58;9.60;;;8.00;;
15327;SDS011;7764;51.430;6.840;2023-04-28T14:42:26;8.98;;;7.22;;
15327;SDS011;7764;51.430;6.840;2023-04-28T14:44:56;8.60;;;6.30;;
15327;SDS011;7764;51.430;6.840;2023-04-28T14:47:23;7.45;;;6.07;;
15327;SDS011;7764;51.430;6.840;2023-04-28T14:49:52;7.80;;;5.00;;
15327;SDS011;7764;51.430;6.840;2023-04-28T14:52:19;6.93;;;5.00;;
15327;SDS011;7764;51.430;6.840;2023-04-28T14:54:46;8.52;;;5.88;;
15327;SDS011;7764;51.430;6.840;2023-04-28T14:57:13;9.05;;;5.78;;
15327;SDS011;7764;51.430;6.840;2023-04-28T14:59:40;8.07;;;5.15;;
15327;SDS011;7764;51.430;6.840;2023-04-28T15:02:07;6.10;;;4.63;;
15327;SDS011;7764;51.430;6.840;2023-04-28T15:04:34;6.68;;;4.40;;